sensor_id;sensor_type;location;lat;lon;timestamp;pressure;altitude;pressure_sealevel;temperature;humidity
43298;BME280;28892;55.640;37.532;2022-09-01T00:01:22;98073.47;;;11.58;63.78
43298;BME280;28892;55.640;37.532;2022-09-01T00:03:49;98072.09;;;11.56;63.16
43298;BME280;28892;55.640;37.532;2022-09-01T00:06:22;98083.06;;;11.59;63.65
43298;BME280;28892;55.640;37.532;2022-09-01T00:08:52;98080.69;;;11.51;63.86
43298;BME280;28892;55.640;37.532;2022-09-01T00:11:20;98075.09;;;11.59;63.68
43298;BME280;28892;55.640;37.532;2022-09-01T00:13:47;98079.03;;;11.57;63.64
43298;BME280;28892;55.640;37.532;2022-09-01T00:16:14;98077.41;;;11.56;63.96
43298;BME280;28892;55.640;37.532;2022-09-01T00:18:43;98079.59;;;11.59;63.54
43298;BME280;28892;55.640;37.532;2022-09-01T00:21:11;98074.88;;;11.61;63.46
43298;BME280;28892;55.640;37.532;2022-09-01T00:23:38;98076.34;;;11.31;64.68
43298;BME280;28892;55.640;37.532;2022-09-01T00:26:04;98080.88;;;11.24;64.83
43298;BME280;28892;55.640;37.532;2022-09-01T00:28:32;98087.09;;;11.11;65.24
43298;BME280;28892;55.640;37.532;2022-09-01T00:30:58;98088.59;;;10.94;66.27
43298;BME280;28892;55.640;37.532;2022-09-01T00:33:25;98087.66;;;11.20;65.15
43298;BME280;28892;55.640;37.532;2022-09-01T00:35:51;98081.41;;;11.65;63.46
43298;BME280;28892;55.640;37.532;2022-09-01T00:38:16;98086.50;;;11.67;63.22
43298;BME280;28892;55.640;37.532;2022-09-01T00:40:42;98080.97;;;11.43;64.36
43298;BME280;28892;55.640;37.532;2022-09-01T00:43:23;98085.72;;;11.34;64.75
43298;BME280;28892;55.640;37.532;2022-09-01T00:45:49;98078.44;;;11.55;63.70
43298;BME280;28892;55.640;37.532;2022-09-01T00:48:17;98080.84;;;11.56;63.80
43298;BME280;28892;55.640;37.532;2022-09-01T00:50:45;98073.72;;;11.57;63.43
43298;BME280;28892;55.640;37.532;2022-09-01T00:53:12;98080.09;;;11.49;63.91
43298;BME280;28892;55.640;37.532;2022-09-01T00:55:38;98084.69;;;11.35;64.38
43298;BME280;28892;55.640;37.532;2022-09-01T00:58:05;98088.72;;;11.44;63.55
43298;BME280;28892;55.640;37.532;2022-09-01T01:00:35;98090.09;;;11.47;63.67
43298;BME280;28892;55.640;37.532;2022-09-01T01:03:09;98085.75;;;10.95;65.25
43298;BME280;28892;55.640;37.532;2022-09-01T01:05:43;98096.06;;;11.10;64.92
43298;BME280;28892;55.640;37.532;2022-09-01T01:08:21;98092.75;;;11.15;64.59
43298;BME280;28892;55.640;37.532;2022-09-01T01:11:13;98093.03;;;11.39;64.01
43298;BME280;28892;55.640;37.532;2022-09-01T01:13:56;98092.16;;;11.45;63.39
43298;BME280;28892;55.640;37.532;2022-09-01T01:16:24;98084.00;;;11.14;64.41
43298;BME280;28892;55.640;37.532;2022-09-01T01:18:51;98078.78;;;11.33;63.47
43298;BME280;28892;55.640;37.532;2022-09-01T01:21:38;98087.28;;;11.42;63.22
43298;BME280;28892;55.640;37.532;2022-09-01T01:24:31;98079.47;;;11.47;63.10
43298;BME280;28892;55.640;37.532;2022-09-01T01:26:57;98078.81;;;11.26;63.46
43298;BME280;28892;55.640;37.532;2022-09-01T01:29:31;98074.06;;;11.35;62.86
43298;BME280;28892;55.640;37.532;2022-09-01T01:31:57;98077.19;;;11.25;62.74
43298;BME280;28892;55.640;37.532;2022-09-01T01:34:23;98067.06;;;11.15;62.83
43298;BME280;28892;55.640;37.532;2022-09-01T01:36:51;98071.53;;;11.15;62.99
43298;BME280;28892;55.640;37.532;2022-09-01T01:39:20;98070.53;;;11.09;63.05
43298;BME280;28892;55.640;37.532;2022-09-01T01:41:48;98082.81;;;10.65;64.53
43298;BME280;28892;55.640;37.532;2022-09-01T01:44:22;98073.66;;;10.60;64.86
43298;BME280;28892;55.640;37.532;2022-09-01T01:46:55;98069.03;;;10.88;63.55
43298;BME280;28892;55.640;37.532;2022-09-01T01:49:25;98069.88;;;11.21;62.16
43298;BME280;28892;55.640;37.532;2022-09-01T01:51:55;98069.19;;;11.57;61.13
43298;BME280;28892;55.640;37.532;2022-09-01T01:54:27;98060.47;;;10.93;63.16
43298;BME280;28892;55.640;37.532;2022-09-01T01:56:58;98068.97;;;10.62;64.05
43298;BME280;28892;55.640;37.532;2022-09-01T01:59:24;98071.81;;;10.61;64.32
43298;BME280;28892;55.640;37.532;2022-09-01T02:01:51;98069.13;;;10.74;63.98
43298;BME280;28892;55.640;37.532;2022-09-01T02:04:19;98068.19;;;10.94;63.21
43298;BME280;28892;55.640;37.532;2022-09-01T02:06:47;98068.84;;;10.83;63.05
43298;BME280;28892;55.640;37.532;2022-09-01T02:09:16;98066.72;;;10.66;64.01
43298;BME280;28892;55.640;37.532;2022-09-01T02:11:43;98076.53;;;10.52;64.44
43298;BME280;28892;55.640;37.532;2022-09-01T02:14:11;98082.25;;;10.56;64.54
43298;BME280;28892;55.640;37.532;2022-09-01T02:16:39;98074.91;;;10.58;64.47
43298;BME280;28892;55.640;37.532;2022-09-01T02:19:06;98070.59;;;10.64;63.92
43298;BME280;28892;55.640;37.532;2022-09-01T02:21:35;98078.75;;;10.69;63.43
43298;BME280;28892;55.640;37.532;2022-09-01T02:24:03;98076.97;;;10.95;62.88
43298;BME280;28892;55.640;37.532;2022-09-01T02:26:36;98081.72;;;10.86;63.23
43298;BME280;28892;55.640;37.532;2022-09-01T02:29:11;98075.41;;;10.80;62.73
43298;BME280;28892;55.640;37.532;2022-09-01T02:31:44;98075.53;;;10.53;63.52
43298;BME280;28892;55.640;37.532;2022-09-01T02:34:11;98078.16;;;10.53;63.51
43298;BME280;28892;55.640;37.532;2022-09-01T02:36:41;98072.69;;;10.48;63.65
43298;BME280;28892;55.640;37.532;2022-09-01T02:39:10;98079.59;;;10.56;63.70
43298;BME280;28892;55.640;37.532;2022-09-01T02:41:36;98066.88;;;10.71;62.99
43298;BME280;28892;55.640;37.532;2022-09-01T02:44:03;98066.41;;;10.42;64.18
43298;BME280;28892;55.640;37.532;2022-09-01T02:46:38;98077.78;;;10.36;64.55
43298;BME280;28892;55.640;37.532;2022-09-01T02:49:14;98068.03;;;10.23;65.03
43298;BME280;28892;55.640;37.532;2022-09-01T02:51:44;98074.34;;;10.42;64.65
43298;BME280;28892;55.640;37.532;2022-09-01T02:54:12;98073.91;;;10.39;64.60
43298;BME280;28892;55.640;37.532;2022-09-01T02:56:41;98071.66;;;10.49;64.11
43298;BME280;28892;55.640;37.532;2022-09-01T02:59:07;98075.16;;;10.43;64.37
43298;BME280;28892;55.640;37.532;2022-09-01T03:01:38;98075.94;;;10.50;64.17
43298;BME280;28892;55.640;37.532;2022-09-01T03:04:06;98079.81;;;10.47;64.53
43298;BME280;28892;55.640;37.532;2022-09-01T03:06:36;98074.09;;;10.51;64.55
43298;BME280;28892;55.640;37.532;2022-09-01T03:09:07;98077.00;;;10.42;64.98
43298;BME280;28892;55.640;37.532;2022-09-01T03:11:35;98072.72;;;10.28;65.00
43298;BME280;28892;55.640;37.532;2022-09-01T03:14:01;98076.41;;;10.20;65.21
43298;BME280;28892;55.640;37.532;2022-09-01T03:16:28;98069.88;;;10.23;65.34
43298;BME280;28892;55.640;37.532;2022-09-01T03:18:59;98068.03;;;10.43;65.19
43298;BME280;28892;55.640;37.532;2022-09-01T03:21:29;98067.13;;;10.56;64.52
43298;BME280;28892;55.640;37.532;2022-09-01T03:23:55;98073.69;;;10.54;64.79
43298;BME280;28892;55.640;37.532;2022-09-01T03:26:23;98071.47;;;10.44;64.85
43298;BME280;28892;55.640;37.532;2022-09-01T03:28:50;98073.09;;;10.45;64.93
43298;BME280;28892;55.640;37.532;2022-09-01T03:31:17;98068.16;;;10.62;63.62
43298;BME280;28892;55.640;37.532;2022-09-01T03:33:45;98077.78;;;10.50;64.18
43298;BME280;28892;55.640;37.532;2022-09-01T03:36:20;98076.72;;;10.64;63.15
43298;BME280;28892;55.640;37.532;2022-09-01T03:38:48;98063.84;;;10.61;63.29
43298;BME280;28892;55.640;37.532;2022-09-01T03:41:19;98088.84;;;10.85;61.71
43298;BME280;28892;55.640;37.532;2022-09-01T03:43:46;98082.69;;;10.46;62.98
43298;BME280;28892;55.640;37.532;2022-09-01T03:46:13;98081.88;;;10.45;63.09
43298;BME280;28892;55.640;37.532;2022-09-01T03:48:48;98094.09;;;10.46;62.26
43298;BME280;28892;55.640;37.532;2022-09-01T03:51:17;98075.94;;;10.50;62.05
43298;BME280;28892;55.640;37.532;2022-09-01T03:53:43;98080.44;;;10.43;62.47
43298;BME280;28892;55.640;37.532;2022-09-01T03:56:09;98086.81;;;10.22;63.32
43298;BME280;28892;55.640;37.532;2022-09-01T03:58:36;98086.59;;;10.30;62.47
43298;BME280;28892;55.640;37.532;2022-09-01T04:01:02;98079.41;;;10.51;61.99
43298;BME280;28892;55.640;37.532;2022-09-01T04:03:31;98093.22;;;10.66;61.48
43298;BME280;28892;55.640;37.532;2022-09-01T04:06:01;98092.91;;;10.88;60.41
43298;BME280;28892;55.640;37.532;2022-09-01T04:08:27;98075.59;;;10.85;60.50
43298;BME280;28892;55.640;37.532;2022-09-01T04:11:00;98074.44;;;10.74;60.54
43298;BME280;28892;55.640;37.532;2022-09-01T04:13:37;98077.78;;;10.95;60.31
43298;BME280;28892;55.640;37.532;2022-09-01T04:16:04;98072.84;;;11.06;59.71
43298;BME280;28892;55.640;37.532;2022-09-01T04:18:59;98076.81;;;10.89;59.89
43298;BME280;28892;55.640;37.532;2022-09-01T04:21:25;98083.63;;;10.72;60.48
43298;BME280;28892;55.640;37.532;2022-09-01T04:23:51;98072.38;;;10.76;60.49
43298;BME280;28892;55.640;37.532;2022-09-01T04:26:17;98079.03;;;10.93;59.88
43298;BME280;28892;55.640;37.532;2022-09-01T04:28:47;98077.63;;;10.83;59.96
43298;BME280;28892;55.640;37.532;2022-09-01T04:31:17;98080.47;;;11.21;58.78
43298;BME280;28892;55.640;37.532;2022-09-01T04:33:47;98079.00;;;11.31;58.21
43298;BME280;28892;55.640;37.532;2022-09-01T04:36:20;98082.38;;;11.13;59.44
43298;BME280;28892;55.640;37.532;2022-09-01T04:38:57;98088.41;;;10.95;59.58
43298;BME280;28892;55.640;37.532;2022-09-01T04:41:30;98092.22;;;10.60;60.49
43298;BME280;28892;55.640;37.532;2022-09-01T04:44:00;98089.34;;;10.69;60.06
43298;BME280;28892;55.640;37.532;2022-09-01T04:46:34;98087.84;;;10.80;59.69
43298;BME280;28892;55.640;37.532;2022-09-01T04:49:04;98090.22;;;10.95;59.29
43298;BME280;28892;55.640;37.532;2022-09-01T04:51:43;98093.81;;;10.68;59.90
43298;BME280;28892;55.640;37.532;2022-09-01T04:54:10;98092.47;;;10.45;60.79
43298;BME280;28892;55.640;37.532;2022-09-01T04:56:44;98092.59;;;10.71;59.90
43298;BME280;28892;55.640;37.532;2022-09-01T04:59:15;98090.63;;;10.53;59.70
43298;BME280;28892;55.640;37.532;2022-09-01T05:01:46;98090.88;;;10.90;59.01
43298;BME280;28892;55.640;37.532;2022-09-01T05:04:19;98101.78;;;11.07;58.37
43298;BME280;28892;55.640;37.532;2022-09-01T05:06:50;98095.84;;;11.12;58.03
43298;BME280;28892;55.640;37.532;2022-09-01T05:09:21;98090.06;;;10.89;58.40
43298;BME280;28892;55.640;37.532;2022-09-01T05:12:19;98099.91;;;10.75;58.36
43298;BME280;28892;55.640;37.532;2022-09-01T05:14:48;98080.53;;;11.14;57.84
43298;BME280;28892;55.640;37.532;2022-09-01T05:17:16;98089.25;;;10.89;58.06
43298;BME280;28892;55.640;37.532;2022-09-01T05:19:45;98093.94;;;10.87;58.35
43298;BME280;28892;55.640;37.532;2022-09-01T05:22:13;98096.94;;;11.04;57.75
43298;BME280;28892;55.640;37.532;2022-09-01T05:24:44;98105.00;;;10.84;58.66
43298;BME280;28892;55.640;37.532;2022-09-01T05:27:10;98099.97;;;11.08;58.10
43298;BME280;28892;55.640;37.532;2022-09-01T05:29:37;98098.41;;;10.93;58.57
43298;BME280;28892;55.640;37.532;2022-09-01T05:32:05;98107.50;;;11.11;57.65
43298;BME280;28892;55.640;37.532;2022-09-01T05:34:34;98100.53;;;10.78;57.98
43298;BME280;28892;55.640;37.532;2022-09-01T05:37:04;98101.88;;;10.94;57.04
43298;BME280;28892;55.640;37.532;2022-09-01T05:39:31;98099.38;;;10.99;57.01
43298;BME280;28892;55.640;37.532;2022-09-01T05:41:58;98112.91;;;10.90;57.58
43298;BME280;28892;55.640;37.532;2022-09-01T05:44:26;98118.06;;;10.79;57.85
43298;BME280;28892;55.640;37.532;2022-09-01T05:46:57;98110.81;;;10.99;57.30
43298;BME280;28892;55.640;37.532;2022-09-01T05:49:25;98094.13;;;10.92;56.93
43298;BME280;28892;55.640;37.532;2022-09-01T05:51:54;98104.31;;;10.95;56.45
43298;BME280;28892;55.640;37.532;2022-09-01T05:54:24;98103.03;;;11.11;55.56
43298;BME280;28892;55.640;37.532;2022-09-01T05:56:54;98105.69;;;11.43;54.17
43298;BME280;28892;55.640;37.532;2022-09-01T05:59:26;98110.06;;;11.82;52.71
43298;BME280;28892;55.640;37.532;2022-09-01T06:02:12;98112.47;;;11.65;52.28
43298;BME280;28892;55.640;37.532;2022-09-01T06:04:38;98103.91;;;11.30;53.24
43298;BME280;28892;55.640;37.532;2022-09-01T06:07:14;98103.63;;;11.45;52.80
43298;BME280;28892;55.640;37.532;2022-09-01T06:09:46;98101.06;;;11.25;53.35
43298;BME280;28892;55.640;37.532;2022-09-01T06:12:13;98091.72;;;10.77;53.98
43298;BME280;28892;55.640;37.532;2022-09-01T06:14:47;98104.84;;;11.11;53.91
43298;BME280;28892;55.640;37.532;2022-09-01T06:17:18;98100.41;;;11.62;52.18
43298;BME280;28892;55.640;37.532;2022-09-01T06:19:50;98108.34;;;11.37;52.01
43298;BME280;28892;55.640;37.532;2022-09-01T06:22:18;98097.03;;;11.23;52.10
43298;BME280;28892;55.640;37.532;2022-09-01T06:24:45;98100.78;;;11.40;51.25
43298;BME280;28892;55.640;37.532;2022-09-01T06:27:18;98093.78;;;11.14;52.28
43298;BME280;28892;55.640;37.532;2022-09-01T06:29:45;98096.72;;;11.06;52.97
43298;BME280;28892;55.640;37.532;2022-09-01T06:32:18;98102.50;;;11.28;52.48
43298;BME280;28892;55.640;37.532;2022-09-01T06:34:45;98095.41;;;11.15;52.80
43298;BME280;28892;55.640;37.532;2022-09-01T06:37:16;98086.75;;;11.33;51.98
43298;BME280;28892;55.640;37.532;2022-09-01T06:39:49;98092.75;;;11.47;52.07
43298;BME280;28892;55.640;37.532;2022-09-01T06:42:15;98103.72;;;11.57;51.58
43298;BME280;28892;55.640;37.532;2022-09-01T06:44:50;98106.88;;;11.73;51.93
43298;BME280;28892;55.640;37.532;2022-09-01T06:47:17;98106.38;;;11.83;51.54
43298;BME280;28892;55.640;37.532;2022-09-01T06:49:43;98106.66;;;11.74;52.16
43298;BME280;28892;55.640;37.532;2022-09-01T06:52:15;98094.06;;;11.63;53.08
43298;BME280;28892;55.640;37.532;2022-09-01T06:54:41;98107.16;;;11.32;54.19
43298;BME280;28892;55.640;37.532;2022-09-01T06:57:08;98104.16;;;11.22;54.44
43298;BME280;28892;55.640;37.532;2022-09-01T06:59:34;98110.28;;;11.55;54.54
43298;BME280;28892;55.640;37.532;2022-09-01T07:02:01;98108.19;;;11.64;53.89
43298;BME280;28892;55.640;37.532;2022-09-01T07:04:46;98108.13;;;11.70;53.63
43298;BME280;28892;55.640;37.532;2022-09-01T07:07:13;98108.34;;;11.37;54.52
43298;BME280;28892;55.640;37.532;2022-09-01T07:09:41;98117.34;;;11.36;54.65
43298;BME280;28892;55.640;37.532;2022-09-01T07:12:18;98108.69;;;11.15;55.25
43298;BME280;28892;55.640;37.532;2022-09-01T07:14:45;98102.09;;;11.24;55.13
43298;BME280;28892;55.640;37.532;2022-09-01T07:17:13;98117.22;;;11.24;54.91
43298;BME280;28892;55.640;37.532;2022-09-01T07:19:41;98118.22;;;11.29;54.74
43298;BME280;28892;55.640;37.532;2022-09-01T07:22:08;98114.78;;;11.54;54.45
43298;BME280;28892;55.640;37.532;2022-09-01T07:24:35;98115.13;;;11.65;53.85
43298;BME280;28892;55.640;37.532;2022-09-01T07:27:19;98117.31;;;11.68;52.86
43298;BME280;28892;55.640;37.532;2022-09-01T07:29:54;98111.53;;;11.52;53.12
43298;BME280;28892;55.640;37.532;2022-09-01T07:32:22;98110.56;;;11.46;53.81
43298;BME280;28892;55.640;37.532;2022-09-01T07:34:48;98116.75;;;11.34;54.26
43298;BME280;28892;55.640;37.532;2022-09-01T07:37:15;98120.69;;;11.56;54.15
43298;BME280;28892;55.640;37.532;2022-09-01T07:39:42;98113.44;;;11.70;53.59
43298;BME280;28892;55.640;37.532;2022-09-01T07:42:29;98115.81;;;11.53;53.58
43298;BME280;28892;55.640;37.532;2022-09-01T07:45:15;98117.28;;;11.42;53.22
43298;BME280;28892;55.640;37.532;2022-09-01T07:48:04;98104.84;;;11.43;53.32
43298;BME280;28892;55.640;37.532;2022-09-01T07:50:35;98115.44;;;11.75;52.52
43298;BME280;28892;55.640;37.532;2022-09-01T07:53:02;98108.31;;;11.94;51.40
43298;BME280;28892;55.640;37.532;2022-09-01T07:55:29;98110.09;;;12.07;51.28
43298;BME280;28892;55.640;37.532;2022-09-01T07:57:58;98110.88;;;12.08;50.94
43298;BME280;28892;55.640;37.532;2022-09-01T08:00:24;98109.63;;;12.10;50.91
43298;BME280;28892;55.640;37.532;2022-09-01T08:02:58;98123.34;;;11.82;51.03
43298;BME280;28892;55.640;37.532;2022-09-01T08:05:24;98118.72;;;11.45;51.60
43298;BME280;28892;55.640;37.532;2022-09-01T08:07:52;98114.84;;;11.73;51.50
43298;BME280;28892;55.640;37.532;2022-09-01T08:10:21;98122.13;;;11.84;50.97
43298;BME280;28892;55.640;37.532;2022-09-01T08:12:49;98108.94;;;11.71;51.27
43298;BME280;28892;55.640;37.532;2022-09-01T08:15:15;98123.41;;;11.75;51.33
43298;BME280;28892;55.640;37.532;2022-09-01T08:17:43;98123.47;;;11.94;50.37
43298;BME280;28892;55.640;37.532;2022-09-01T08:20:11;98125.47;;;11.73;50.51
43298;BME280;28892;55.640;37.532;2022-09-01T08:22:56;98128.72;;;11.75;50.94
43298;BME280;28892;55.640;37.532;2022-09-01T08:25:40;98133.66;;;11.71;51.50
43298;BME280;28892;55.640;37.532;2022-09-01T08:28:07;98130.34;;;11.76;50.61
43298;BME280;28892;55.640;37.532;2022-09-01T08:30:33;98111.03;;;11.87;50.86
43298;BME280;28892;55.640;37.532;2022-09-01T08:33:01;98125.63;;;11.78;50.87
43298;BME280;28892;55.640;37.532;2022-09-01T08:35:27;98131.00;;;11.97;50.39
43298;BME280;28892;55.640;37.532;2022-09-01T08:37:57;98137.84;;;11.54;50.52
43298;BME280;28892;55.640;37.532;2022-09-01T08:40:25;98126.38;;;11.60;50.86
43298;BME280;28892;55.640;37.532;2022-09-01T08:43:17;98132.84;;;11.71;50.76
43298;BME280;28892;55.640;37.532;2022-09-01T08:45:54;98132.22;;;11.69;50.62
43298;BME280;28892;55.640;37.532;2022-09-01T08:48:25;98142.66;;;11.38;50.69
43298;BME280;28892;55.640;37.532;2022-09-01T08:50:57;98122.94;;;11.53;50.90
43298;BME280;28892;55.640;37.532;2022-09-01T08:56:36;98133.66;;;11.39;50.83
43298;BME280;28892;55.640;37.532;2022-09-01T08:59:06;98132.63;;;11.40;51.08
43298;BME280;28892;55.640;37.532;2022-09-01T09:10:19;98148.03;;;11.89;50.46
43298;BME280;28892;55.640;37.532;2022-09-01T09:15:31;98143.47;;;11.71;50.45
43298;BME280;28892;55.640;37.532;2022-09-01T09:18:15;98147.44;;;11.87;50.35
43298;BME280;28892;55.640;37.532;2022-09-01T09:20:44;98153.50;;;11.94;50.06
43298;BME280;28892;55.640;37.532;2022-09-01T09:23:20;98147.66;;;11.85;50.39
43298;BME280;28892;55.640;37.532;2022-09-01T09:25:49;98149.28;;;11.86;50.20
43298;BME280;28892;55.640;37.532;2022-09-01T09:28:15;98149.88;;;11.88;49.63
43298;BME280;28892;55.640;37.532;2022-09-01T09:30:40;98150.22;;;11.67;49.87
43298;BME280;28892;55.640;37.532;2022-09-01T09:33:06;98167.03;;;11.60;50.77
43298;BME280;28892;55.640;37.532;2022-09-01T09:38:27;98161.69;;;11.67;50.79
43298;BME280;28892;55.640;37.532;2022-09-01T09:41:13;98181.31;;;11.66;51.35
43298;BME280;28892;55.640;37.532;2022-09-01T09:43:49;98175.72;;;12.07;50.21
43298;BME280;28892;55.640;37.532;2022-09-01T09:46:33;98174.84;;;12.13;49.48
43298;BME280;28892;55.640;37.532;2022-09-01T09:49:15;98167.66;;;12.13;49.29
43298;BME280;28892;55.640;37.532;2022-09-01T09:51:55;98168.28;;;12.15;48.33
43298;BME280;28892;55.640;37.532;2022-09-01T09:54:32;98171.44;;;11.99;48.70
43298;BME280;28892;55.640;37.532;2022-09-01T09:57:12;98178.25;;;11.95;48.43
43298;BME280;28892;55.640;37.532;2022-09-01T09:59:46;98182.72;;;11.94;48.80
43298;BME280;28892;55.640;37.532;2022-09-01T10:04:55;98189.91;;;11.94;49.64
43298;BME280;28892;55.640;37.532;2022-09-01T10:07:32;98181.34;;;12.17;49.07
43298;BME280;28892;55.640;37.532;2022-09-01T10:10:01;98185.03;;;12.16;48.89
43298;BME280;28892;55.640;37.532;2022-09-01T10:12:30;98191.59;;;11.88;50.06
43298;BME280;28892;55.640;37.532;2022-09-01T10:15:02;98186.00;;;12.22;49.06
43298;BME280;28892;55.640;37.532;2022-09-01T10:17:36;98185.16;;;12.28;48.79
43298;BME280;28892;55.640;37.532;2022-09-01T10:22:36;98197.41;;;12.04;48.89
43298;BME280;28892;55.640;37.532;2022-09-01T10:25:08;98200.09;;;11.97;49.50
43298;BME280;28892;55.640;37.532;2022-09-01T10:27:43;98198.03;;;11.99;48.65
43298;BME280;28892;55.640;37.532;2022-09-01T10:30:19;98196.16;;;12.06;49.22
43298;BME280;28892;55.640;37.532;2022-09-01T10:35:29;98192.13;;;12.48;48.46
43298;BME280;28892;55.640;37.532;2022-09-01T10:38:01;98194.63;;;12.42;48.08
43298;BME280;28892;55.640;37.532;2022-09-01T10:43:40;98195.44;;;12.62;47.67
43298;BME280;28892;55.640;37.532;2022-09-01T10:45:46;98200.66;;;12.75;47.35
43298;BME280;28892;55.640;37.532;2022-09-01T10:48:22;98202.03;;;12.96;47.15
43298;BME280;28892;55.640;37.532;2022-09-01T10:53:46;98195.25;;;12.63;47.39
43298;BME280;28892;55.640;37.532;2022-09-01T11:04:05;98197.63;;;12.27;47.82
43298;BME280;28892;55.640;37.532;2022-09-01T11:09:02;98209.91;;;12.47;47.77
43298;BME280;28892;55.640;37.532;2022-09-01T11:11:44;98199.72;;;12.44;48.17
43298;BME280;28892;55.640;37.532;2022-09-01T11:14:17;98199.22;;;12.54;47.63
43298;BME280;28892;55.640;37.532;2022-09-01T11:17:20;98212.75;;;12.90;47.15
43298;BME280;28892;55.640;37.532;2022-09-01T11:19:55;98215.44;;;12.90;47.44
43298;BME280;28892;55.640;37.532;2022-09-01T11:36:14;98201.97;;;13.03;46.27
43298;BME280;28892;55.640;37.532;2022-09-01T11:38:58;98202.50;;;12.93;46.54
43298;BME280;28892;55.640;37.532;2022-09-01T11:42:16;98194.16;;;13.20;46.20
43298;BME280;28892;55.640;37.532;2022-09-01T11:47:25;98198.19;;;12.74;47.21
43298;BME280;28892;55.640;37.532;2022-09-01T11:49:56;98182.00;;;13.12;45.93
43298;BME280;28892;55.640;37.532;2022-09-01T11:52:25;98192.13;;;13.22;45.87
43298;BME280;28892;55.640;37.532;2022-09-01T11:54:51;98187.75;;;13.28;45.71
43298;BME280;28892;55.640;37.532;2022-09-01T11:57:26;98194.97;;;12.90;46.29
43298;BME280;28892;55.640;37.532;2022-09-01T11:59:54;98198.50;;;12.84;47.42
43298;BME280;28892;55.640;37.532;2022-09-01T12:02:45;98170.59;;;13.05;46.51
43298;BME280;28892;55.640;37.532;2022-09-01T12:05:34;98174.66;;;13.26;46.28
43298;BME280;28892;55.640;37.532;2022-09-01T12:08:11;98173.88;;;13.38;45.73
43298;BME280;28892;55.640;37.532;2022-09-01T12:10:41;98173.41;;;13.41;45.29
43298;BME280;28892;55.640;37.532;2022-09-01T12:13:18;98170.34;;;13.44;44.96
43298;BME280;28892;55.640;37.532;2022-09-01T12:15:58;98154.06;;;13.76;44.40
43298;BME280;28892;55.640;37.532;2022-09-01T12:18:26;98168.44;;;13.63;44.97
43298;BME280;28892;55.640;37.532;2022-09-01T12:20:56;98161.50;;;13.44;45.48
43298;BME280;28892;55.640;37.532;2022-09-01T12:23:34;98167.59;;;13.63;45.16
43298;BME280;28892;55.640;37.532;2022-09-01T12:26:06;98162.28;;;13.63;44.23
43298;BME280;28892;55.640;37.532;2022-09-01T12:28:33;98180.94;;;13.63;44.76
43298;BME280;28892;55.640;37.532;2022-09-01T12:31:03;98180.28;;;13.79;43.37
43298;BME280;28892;55.640;37.532;2022-09-01T12:33:30;98171.06;;;13.33;44.51
43298;BME280;28892;55.640;37.532;2022-09-01T12:39:41;98168.84;;;13.18;45.77
43298;BME280;28892;55.640;37.532;2022-09-01T12:41:43;98171.53;;;13.30;45.37
43298;BME280;28892;55.640;37.532;2022-09-01T12:45:00;98167.84;;;13.61;44.53
43298;BME280;28892;55.640;37.532;2022-09-01T12:52:34;98173.25;;;13.54;43.87
43298;BME280;28892;55.640;37.532;2022-09-01T12:57:32;98166.81;;;13.74;43.44
43298;BME280;28892;55.640;37.532;2022-09-01T13:02:47;98170.53;;;13.73;43.33
43298;BME280;28892;55.640;37.532;2022-09-01T13:05:41;98161.38;;;13.81;42.85
43298;BME280;28892;55.640;37.532;2022-09-01T13:08:16;98152.16;;;14.07;42.49
43298;BME280;28892;55.640;37.532;2022-09-01T13:10:45;98148.41;;;13.73;43.12
43298;BME280;28892;55.640;37.532;2022-09-01T13:13:13;98155.06;;;13.51;43.75
43298;BME280;28892;55.640;37.532;2022-09-01T13:15:47;98159.25;;;13.47;44.07
43298;BME280;28892;55.640;37.532;2022-09-01T13:18:16;98164.31;;;13.49;44.32
43298;BME280;28892;55.640;37.532;2022-09-01T13:20:42;98156.56;;;13.47;44.80
43298;BME280;28892;55.640;37.532;2022-09-01T13:23:08;98156.94;;;13.63;44.20
43298;BME280;28892;55.640;37.532;2022-09-01T13:25:38;98153.50;;;13.74;44.43
43298;BME280;28892;55.640;37.532;2022-09-01T13:28:09;98144.13;;;13.83;44.68
43298;BME280;28892;55.640;37.532;2022-09-01T13:30:36;98149.09;;;13.80;44.95
43298;BME280;28892;55.640;37.532;2022-09-01T13:33:04;98148.09;;;13.93;45.48
43298;BME280;28892;55.640;37.532;2022-09-01T13:35:30;98136.47;;;13.63;46.04
43298;BME280;28892;55.640;37.532;2022-09-01T13:37:56;98155.47;;;13.67;46.21
43298;BME280;28892;55.640;37.532;2022-09-01T13:40:22;98147.22;;;13.57;46.49
43298;BME280;28892;55.640;37.532;2022-09-01T13:42:51;98151.53;;;13.69;46.18
43298;BME280;28892;55.640;37.532;2022-09-01T13:45:22;98150.84;;;13.74;46.24
43298;BME280;28892;55.640;37.532;2022-09-01T13:47:50;98149.78;;;13.75;46.45
43298;BME280;28892;55.640;37.532;2022-09-01T13:50:18;98136.34;;;13.70;47.40
43298;BME280;28892;55.640;37.532;2022-09-01T13:52:50;98138.75;;;13.60;47.93
43298;BME280;28892;55.640;37.532;2022-09-01T13:55:21;98137.25;;;13.64;47.98
43298;BME280;28892;55.640;37.532;2022-09-01T13:57:47;98142.59;;;13.64;48.05
43298;BME280;28892;55.640;37.532;2022-09-01T14:00:15;98135.41;;;13.64;47.63
43298;BME280;28892;55.640;37.532;2022-09-01T14:02:46;98152.66;;;13.62;48.19
43298;BME280;28892;55.640;37.532;2022-09-01T14:05:39;98147.09;;;13.51;48.75
43298;BME280;28892;55.640;37.532;2022-09-01T14:08:05;98152.13;;;13.41;48.39
43298;BME280;28892;55.640;37.532;2022-09-01T14:10:31;98139.44;;;13.24;48.14
43298;BME280;28892;55.640;37.532;2022-09-01T14:12:58;98150.78;;;13.50;47.53
43298;BME280;28892;55.640;37.532;2022-09-01T14:15:25;98130.69;;;13.36;47.14
43298;BME280;28892;55.640;37.532;2022-09-01T14:17:53;98141.31;;;13.66;46.42
43298;BME280;28892;55.640;37.532;2022-09-01T14:20:26;98157.25;;;13.97;45.72
43298;BME280;28892;55.640;37.532;2022-09-01T14:22:52;98142.16;;;13.79;45.52